Time;durP1;ratioP1;P1;durP2;ratioP2;P2;SDS_P1;SDS_P2;PMS_P1;PMS_P2;Temp;Humidity;BMP_temperature;BMP_pressure;BME280_temperature;BME280_humidity;BME280_pressure;Samples;Min_cycle;Max_cycle;Signal;HPM_P1;HPM_P2
2022/09/24 00:01:51;;;;;;;9.75;9.05;;;16.00;51.10;;;;;;20487;6848;339621;-77
2022/09/24 00:04:17;;;;;;;9.00;8.23;;;16.10;51.60;;;;;;20495;6849;310412;-77
2022/09/24 00:06:44;;;;;;;9.07;8.27;;;16.30;51.30;;;;;;20686;6849;117602;-76
2022/09/24 00:09:09;;;;;;;9.00;8.30;;;16.20;51.10;;;;;;20486;6849;308122;-77
2022/09/24 00:11:35;;;;;;;9.07;8.57;;;16.20;51.40;;;;;;20473;6849;337728;-77
2022/09/24 00:14:02;;;;;;;8.43;7.75;;;16.40;51.90;;;;;;20488;6849;308458;-77
2022/09/24 00:16:29;;;;;;;8.38;7.85;;;16.50;51.40;;;;;;20476;6849;325026;-77
2022/09/24 00:18:53;;;;;;;9.68;8.98;;;16.60;50.70;;;;;;20483;6849;308095;-77
2022/09/24 00:21:25;;;;;;;10.00;9.00;;;16.70;50.40;;;;;;20491;6849;308472;-77
2022/09/24 00:23:51;;;;;;;8.80;8.20;;;16.70;50.20;;;;;;20699;6849;117834;-77
2022/09/24 00:29:02;;;;;;;9.50;8.90;;;16.00;50.90;;;;;;20509;6849;308501;-77
2022/09/24 00:31:27;;;;;;;9.75;8.70;;;16.00;51.60;;;;;;20495;6849;337632;-77
2022/09/24 00:33:53;;;;;;;9.53;8.93;;;16.20;51.30;;;;;;20711;6849;117755;-77
2022/09/24 00:36:18;;;;;;;9.97;9.37;;;16.00;51.10;;;;;;20497;6846;278499;-77
2022/09/24 00:38:44;;;;;;;9.88;9.18;;;16.00;51.30;;;;;;20473;6848;342484;-77
2022/09/24 00:41:09;;;;;;;9.20;8.53;;;16.20;51.10;;;;;;20697;6848;117764;-77
2022/09/24 00:43:36;;;;;;;9.93;9.23;;;15.90;51.20;;;;;;20491;6848;308947;-77
2022/09/24 00:46:11;;;;;;;10.35;9.73;;;15.90;51.20;;;;;;20487;6848;309104;-77
2022/09/24 00:48:38;;;;;;;9.47;8.87;;;16.10;51.00;;;;;;20662;6848;117421;-77
2022/09/24 00:51:02;;;;;;;9.53;8.93;;;15.80;50.90;;;;;;20492;6848;313064;-77
2022/09/24 00:53:32;;;;;;;9.73;9.03;;;15.80;51.40;;;;;;20661;6848;118717;-77
2022/09/24 00:55:56;;;;;;;9.75;9.15;;;15.60;51.40;;;;;;20494;6848;336950;-77
2022/09/24 00:58:22;;;;;;;9.50;8.73;;;15.70;51.80;;;;;;20711;6848;117717;-77
2022/09/24 01:00:47;;;;;;;9.60;8.90;;;15.60;51.70;;;;;;20484;6848;278098;-78
2022/09/24 01:03:18;;;;;;;10.38;9.48;;;15.60;51.90;;;;;;20495;6848;278675;-77
2022/09/24 01:05:43;;;;;;;9.67;8.90;;;15.90;51.50;;;;;;20493;6848;282539;-77
2022/09/24 01:08:19;;;;;;;9.67;8.83;;;16.10;51.10;;;;;;20496;6848;278948;-77
2022/09/24 01:10:52;;;;;;;7.60;7.20;;;16.00;50.60;;;;;;20686;6848;118973;-77
2022/09/24 01:13:39;;;;;;;8.93;8.10;;;16.00;50.70;;;;;;20682;6848;117242;-77
2022/09/24 01:16:06;;;;;;;8.90;8.23;;;15.60;51.00;;;;;;20485;6849;308449;-77
2022/09/24 01:18:32;;;;;;;7.57;7.17;;;15.60;50.80;;;;;;20310;6849;119835;-77
2022/09/24 01:21:07;;;;;;;9.10;8.57;;;15.60;50.80;;;;;;20470;6849;308491;-77
2022/09/24 01:23:42;;;;;;;8.23;7.63;;;15.70;50.50;;;;;;20705;6849;117284;-77
2022/09/24 01:26:35;;;;;;;8.90;8.10;;;15.60;50.50;;;;;;20688;6849;118936;-77
2022/09/24 01:29:25;;;;;;;10.20;9.40;;;15.30;50.80;;;;;;20488;6849;279448;-77
2022/09/24 01:32:04;;;;;;;9.88;9.18;;;15.50;51.10;;;;;;20490;6849;278906;-77
2022/09/24 01:34:30;;;;;;;9.53;8.83;;;15.70;50.30;;;;;;20458;6849;308073;-77
2022/09/24 01:36:56;;;;;;;9.33;8.70;;;15.90;50.00;;;;;;20681;6849;118079;-77
2022/09/24 01:39:21;;;;;;;9.60;8.80;;;15.70;50.10;;;;;;20698;6849;117292;-77
2022/09/24 01:41:47;;;;;;;10.20;9.40;;;15.40;50.50;;;;;;20492;6849;307745;-80
2022/09/24 01:44:13;;;;;;;10.20;9.40;;;15.40;50.90;;;;;;20691;6849;118799;-77
2022/09/24 01:46:39;;;;;;;9.83;9.23;;;15.40;51.90;;;;;;20471;6849;312143;-77
2022/09/24 01:49:06;;;;;;;9.20;8.30;;;15.30;51.30;;;;;;20703;6847;117900;-77
2022/09/24 01:51:30;;;;;;;9.47;8.87;;;15.20;51.20;;;;;;20688;6848;117546;-77
2022/09/24 01:53:56;;;;;;;10.60;9.70;;;15.10;52.10;;;;;;20464;6848;279912;-77
2022/09/24 01:56:22;;;;;;;11.73;10.82;;;15.10;51.70;;;;;;20305;6848;299941;-77
2022/09/24 01:58:48;;;;;;;10.63;9.73;;;15.50;50.90;;;;;;20471;6848;311667;-77
2022/09/24 02:01:14;;;;;;;10.40;9.50;;;15.50;50.90;;;;;;20689;6848;117892;-77
2022/09/24 02:03:47;;;;;;;10.43;9.47;;;15.30;50.90;;;;;;20695;6848;117719;-77
2022/09/24 02:06:22;;;;;;;10.23;9.43;;;15.00;51.40;;;;;;20484;6848;308943;-77
2022/09/24 02:08:47;;;;;;;9.80;9.10;;;15.00;51.90;;;;;;20379;6848;307700;-77
2022/09/24 02:11:16;;;;;;;9.20;8.37;;;15.30;51.70;;;;;;20704;6848;118071;-77
2022/09/24 02:13:45;;;;;;;9.50;8.67;;;15.10;51.60;;;;;;20698;6848;117391;-78
2022/09/24 02:16:10;;;;;;;9.00;8.40;;;14.80;51.90;;;;;;20694;6848;117233;-78
2022/09/24 02:18:40;;;;;;;9.83;9.23;;;14.60;52.40;;;;;;20474;6848;278502;-78
2022/09/24 02:21:06;;;;;;;10.63;9.65;;;15.10;52.70;;;;;;20490;6848;283011;-78
2022/09/24 02:23:31;;;;;;;10.55;9.75;;;15.10;52.70;;;;;;20481;6848;342224;-77
2022/09/24 02:26:00;;;;;;;9.20;8.40;;;15.40;52.20;;;;;;20686;6849;117327;-77
2022/09/24 02:28:24;;;;;;;9.48;8.70;;;15.20;52.00;;;;;;20467;6849;309446;-78
2022/09/24 02:30:50;;;;;;;10.05;9.32;;;15.30;52.20;;;;;;20490;6849;341270;-77
2022/09/24 02:36:02;;;;;;;9.13;8.60;;;15.30;51.70;;;;;;20505;6849;309442;-77
2022/09/24 02:38:28;;;;;;;9.10;8.23;;;15.40;52.00;;;;;;20687;6849;119383;-77
2022/09/24 02:40:54;;;;;;;8.95;8.40;;;15.20;51.90;;;;;;20707;6849;119575;-77
2022/09/24 02:43:19;;;;;;;9.85;9.15;;;15.00;52.40;;;;;;20487;6849;308016;-78
2022/09/24 02:45:46;;;;;;;9.40;7.43;;;15.10;52.60;;;;;;20703;6849;118629;-78
2022/09/24 02:48:12;;;;;;;9.13;8.53;;;15.20;52.50;;;;;;20496;6849;278787;-77
2022/09/24 02:50:38;;;;;;;9.15;8.45;;;15.40;52.00;;;;;;20460;6849;307925;-78
2022/09/24 02:53:04;;;;;;;7.63;7.03;;;15.40;52.00;;;;;;20710;6849;117857;-77
2022/09/24 02:55:29;;;;;;;9.65;8.68;;;15.30;51.90;;;;;;20663;6849;117710;-77
2022/09/24 02:57:55;;;;;;;8.43;7.83;;;15.00;52.30;;;;;;20707;6849;117168;-77
2022/09/24 03:00:20;;;;;;;8.80;8.13;;;14.80;52.60;;;;;;20708;6847;117192;-77
2022/09/24 03:02:47;;;;;;;9.57;8.63;;;14.80;52.90;;;;;;20474;6848;307710;-78
2022/09/24 03:05:13;;;;;;;8.87;8.17;;;14.80;52.90;;;;;;20701;6848;123324;-77
2022/09/24 03:07:38;;;;;;;9.20;8.40;;;14.80;52.70;;;;;;20490;6848;308267;-77
2022/09/24 03:10:04;;;;;;;8.80;8.20;;;15.10;52.40;;;;;;20495;6848;308617;-77
2022/09/24 03:12:29;;;;;;;8.17;7.37;;;15.40;51.70;;;;;;20688;6848;121113;-81
2022/09/24 03:14:56;;;;;;;9.00;8.38;;;15.40;52.10;;;;;;20496;6848;307674;-78
2022/09/24 03:17:21;;;;;;;8.63;8.00;;;15.40;51.60;;;;;;20702;6848;117275;-77
2022/09/24 03:19:47;;;;;;;7.50;6.90;;;15.30;51.50;;;;;;20708;6848;118362;-77
2022/09/24 03:22:13;;;;;;;7.53;7.03;;;15.10;51.90;;;;;;20681;6848;117408;-77
2022/09/24 03:24:39;;;;;;;8.52;7.72;;;14.80;52.20;;;;;;20474;6848;280309;-78
2022/09/24 03:27:05;;;;;;;8.93;8.23;;;15.00;52.50;;;;;;20473;6848;308360;-77
2022/09/24 03:32:16;;;;;;;8.65;7.95;;;15.20;51.70;;;;;;20493;6848;338602;-77
2022/09/24 03:34:42;;;;;;;8.90;8.20;;;15.30;51.70;;;;;;20474;6848;308475;-77
2022/09/24 03:37:09;;;;;;;7.77;7.20;;;15.60;51.20;;;;;;20710;6849;117543;-77
2022/09/24 03:39:34;;;;;;;6.83;6.43;;;15.40;51.20;;;;;;20703;6849;118851;-77
2022/09/24 03:42:00;;;;;;;8.23;7.53;;;15.10;51.60;;;;;;20706;6849;117417;-77
2022/09/24 03:44:26;;;;;;;7.90;7.07;;;14.90;52.10;;;;;;20694;6849;119882;-78
2022/09/24 03:46:51;;;;;;;7.90;7.40;;;14.80;52.40;;;;;;20496;6849;308965;-78
2022/09/24 03:49:17;;;;;;;7.97;7.37;;;15.00;52.40;;;;;;20709;6849;117776;-77
2022/09/24 03:51:43;;;;;;;8.23;7.62;;;14.90;52.10;;;;;;20701;6849;120924;-78
2022/09/24 03:54:08;;;;;;;8.10;7.47;;;14.90;52.10;;;;;;20703;6849;117252;-77
2022/09/24 03:56:34;;;;;;;7.33;6.80;;;14.80;52.40;;;;;;20680;6849;117319;-77
2022/09/24 03:58:59;;;;;;;7.87;7.37;;;14.70;52.60;;;;;;20494;6849;279468;-77
2022/09/24 04:01:27;;;;;;;8.33;7.77;;;15.30;52.60;;;;;;20491;6849;308526;-78
2022/09/24 04:03:53;;;;;;;7.87;7.20;;;15.30;51.90;;;;;;20701;6849;117813;-77
2022/09/24 04:06:19;;;;;;;8.17;6.97;;;15.30;51.70;;;;;;20702;6849;117890;-77
2022/09/24 04:08:46;;;;;;;7.07;6.47;;;14.80;52.20;;;;;;20680;6849;117389;-77
2022/09/24 04:11:11;;;;;;;7.60;6.87;;;14.80;52.20;;;;;;20700;6847;117122;-77
2022/09/24 04:13:36;;;;;;;7.03;6.63;;;14.60;52.40;;;;;;20702;6848;117644;-77
2022/09/24 04:16:02;;;;;;;7.03;6.53;;;14.50;52.80;;;;;;20704;6848;117532;-76
2022/09/24 04:18:28;;;;;;;7.90;7.40;;;14.40;52.90;;;;;;20476;6848;286180;-77
2022/09/24 04:21:00;;;;;;;7.70;7.20;;;14.60;53.30;;;;;;20481;6848;306605;-76
2022/09/24 04:23:26;;;;;;;7.70;7.13;;;14.90;52.80;;;;;;20701;6848;118309;-74
2022/09/24 04:25:51;;;;;;;7.30;6.80;;;14.90;52.50;;;;;;20701;6848;117215;-76
2022/09/24 04:28:16;;;;;;;7.40;6.67;;;14.70;52.80;;;;;;20682;6848;117177;-77
2022/09/24 04:30:42;;;;;;;7.70;7.10;;;14.50;53.10;;;;;;20473;6848;308144;-77
2022/09/24 04:33:08;;;;;;;7.73;7.13;;;14.60;53.30;;;;;;20480;6848;298418;-76
2022/09/24 04:35:37;;;;;;;7.90;7.40;;;15.20;52.20;;;;;;20497;6848;309000;-76
2022/09/24 04:38:02;;;;;;;7.37;6.77;;;15.20;52.20;;;;;;20705;6848;118001;-75
2022/09/24 04:40:28;;;;;;;11.00;7.20;;;15.10;52.10;;;;;;20690;6848;123035;-76
2022/09/24 04:42:53;;;;;;;7.30;6.80;;;14.80;52.50;;;;;;20705;6848;117519;-76
2022/09/24 04:45:20;;;;;;;8.00;7.40;;;14.70;53.00;;;;;;20480;6848;279868;-76
2022/09/24 04:47:54;;;;;;;8.13;7.63;;;14.70;53.00;;;;;;20488;6848;308076;-76
2022/09/24 04:50:17;;;;;;;7.90;7.13;;;15.10;52.60;;;;;;20674;6849;117380;-75
2022/09/24 04:52:43;;;;;;;7.17;6.67;;;15.00;52.40;;;;;;20668;6849;117615;-76
2022/09/24 04:55:12;;;;;;;7.90;7.28;;;14.70;52.60;;;;;;20472;6849;308913;-75
2022/09/24 04:57:37;;;;;;;7.50;7.00;;;14.80;52.90;;;;;;20704;6849;117966;-79
2022/09/24 05:00:06;;;;;;;7.23;6.60;;;14.80;52.80;;;;;;20737;6849;118156;-77
2022/09/24 05:02:33;;;;;;;8.37;7.77;;;14.60;53.00;;;;;;20679;6849;121361;-78
2022/09/24 05:05:00;;;;;;;7.93;7.40;;;14.50;53.30;;;;;;20521;6849;278577;-79
2022/09/24 05:07:26;;;;;;;7.90;7.40;;;14.60;53.30;;;;;;20525;6849;308037;-78
2022/09/24 05:09:51;;;;;;;7.47;6.90;;;15.00;52.90;;;;;;20726;6849;117159;-78
2022/09/24 05:12:20;;;;;;;8.38;7.78;;;15.00;52.70;;;;;;20499;6849;308576;-79
2022/09/24 05:14:44;;;;;;;7.70;7.03;;;15.10;52.80;;;;;;20697;6849;117980;-79
2022/09/24 05:17:09;;;;;;;8.30;7.60;;;15.00;52.60;;;;;;20505;6849;278583;-79
2022/09/24 05:19:35;;;;;;;9.33;8.63;;;15.00;52.60;;;;;;20509;6849;318077;-77
2022/09/24 05:22:02;;;;;;;8.63;8.13;;;15.30;52.20;;;;;;20500;6847;299810;-78
2022/09/24 05:24:27;;;;;;;8.53;7.93;;;15.50;51.70;;;;;;20474;6848;309459;-78
2022/09/24 05:27:09;;;;;;;8.05;7.45;;;15.40;51.50;;;;;;20712;6848;117810;-80
2022/09/24 05:29:41;;;;;;;8.57;7.73;;;15.40;51.50;;;;;;20701;6848;117160;-79
2022/09/24 05:32:06;;;;;;;8.77;8.27;;;15.00;52.00;;;;;;20492;6848;308875;-80
2022/09/24 05:34:31;;;;;;;8.43;7.90;;;15.10;52.60;;;;;;20666;6848;117452;-78
2022/09/24 05:36:58;;;;;;;8.43;7.73;;;15.00;52.50;;;;;;20714;6848;117271;-86
2022/09/24 05:39:24;;;;;;;8.50;7.80;;;14.80;52.80;;;;;;20493;6848;282439;-79
2022/09/24 05:41:49;;;;;;;8.73;8.13;;;14.90;53.30;;;;;;20532;6848;306125;-80
2022/09/24 05:44:18;;;;;;;9.15;8.55;;;15.20;52.90;;;;;;20552;6848;310508;-79
2022/09/24 05:46:41;;;;;;;9.10;8.50;;;15.30;52.50;;;;;;20726;6848;117569;-79
2022/09/24 05:49:08;;;;;;;9.03;8.33;;;15.30;52.40;;;;;;20570;6848;307945;-76
2022/09/24 05:51:34;;;;;;;8.30;7.80;;;15.30;52.70;;;;;;20758;6848;67815;-77
2022/09/24 05:53:59;;;;;;;9.23;8.52;;;15.20;52.70;;;;;;20539;6848;339000;-77
2022/09/24 05:56:25;;;;;;;9.07;8.27;;;15.20;53.00;;;;;;20727;6848;117589;-78
2022/09/24 05:58:51;;;;;;;9.03;8.37;;;15.10;53.00;;;;;;20334;6863;337737;-74
2022/09/24 06:01:18;;;;;;;9.18;8.60;;;15.20;53.70;;;;;;20355;6853;279941;-75
2022/09/24 06:03:58;;;;;;;8.70;8.20;;;15.40;53.00;;;;;;20498;6849;309584;-75
2022/09/24 06:06:23;;;;;;;9.10;8.50;;;15.70;52.90;;;;;;20700;6849;119587;-78
2022/09/24 06:08:50;;;;;;;9.20;8.70;;;15.50;52.80;;;;;;20515;6849;290659;-78
2022/09/24 06:11:15;;;;;;;8.57;7.87;;;15.40;52.70;;;;;;20721;6849;116435;-77
2022/09/24 06:13:42;;;;;;;8.47;7.77;;;15.30;52.80;;;;;;20703;6849;116435;-79
2022/09/24 06:16:08;;;;;;;9.55;8.65;;;15.10;53.20;;;;;;20482;6849;300760;-79
2022/09/24 06:18:34;;;;;;;8.80;8.10;;;15.50;53.00;;;;;;20461;6849;278579;-78
2022/09/24 06:20:59;;;;;;;8.73;8.13;;;15.40;53.00;;;;;;20685;6849;117982;-77
2022/09/24 06:23:26;;;;;;;10.52;8.20;;;15.20;53.90;;;;;;20703;6849;117366;-78
2022/09/24 06:25:51;;;;;;;9.10;8.40;;;15.20;53.20;;;;;;20488;6849;337803;-77
2022/09/24 06:28:18;;;;;;;9.15;8.38;;;15.30;53.30;;;;;;20496;6849;307747;-77
2022/09/24 06:30:46;;;;;;;9.50;8.80;;;16.00;52.40;;;;;;20473;6849;308512;-78
2022/09/24 06:33:11;;;;;;;8.70;8.10;;;15.90;52.30;;;;;;20491;6849;285355;-84
2022/09/24 06:35:38;;;;;;;8.60;7.90;;;16.40;52.20;;;;;;20455;6847;344878;-77
2022/09/24 06:38:04;;;;;;;8.17;7.57;;;16.30;52.10;;;;;;20629;6848;117165;-78
2022/09/24 06:40:29;;;;;;;7.60;7.20;;;16.20;52.10;;;;;;20673;6848;121426;-78
2022/09/24 06:42:55;;;;;;;8.17;7.57;;;15.90;52.50;;;;;;20453;6848;337657;-77
2022/09/24 06:45:21;;;;;;;7.40;6.90;;;15.90;53.00;;;;;;20690;6848;117406;-78
2022/09/24 06:47:53;;;;;;;9.03;8.33;;;15.90;52.90;;;;;;20488;6848;311218;-78
2022/09/24 06:50:18;;;;;;;8.50;8.00;;;16.00;53.00;;;;;;20448;6848;313268;-77
2022/09/24 06:52:45;;;;;;;8.43;7.90;;;16.40;53.00;;;;;;20465;6848;468611;-77
2022/09/24 06:55:10;;;;;;;8.80;8.20;;;16.40;52.30;;;;;;20493;6848;299087;-77
2022/09/24 06:57:36;;;;;;;8.03;7.43;;;16.60;52.70;;;;;;20706;6848;118197;-77
2022/09/24 07:00:03;;;;;;;8.20;7.60;;;16.40;52.10;;;;;;20486;6848;313150;-77
2022/09/24 07:02:29;;;;;;;7.73;7.17;;;16.40;52.40;;;;;;20683;6848;118229;-77
2022/09/24 07:04:54;;;;;;;8.20;7.40;;;16.30;52.40;;;;;;20492;6848;289967;-77
2022/09/24 07:07:31;;;;;;;8.40;7.80;;;16.30;52.70;;;;;;20491;6848;308853;-76
2022/09/24 07:09:55;;;;;;;7.60;7.00;;;16.60;52.40;;;;;;20694;6848;117821;-77
2022/09/24 07:12:21;;;;;;;7.85;7.25;;;16.40;52.30;;;;;;20480;6849;340671;-77
2022/09/24 07:14:46;;;;;;;7.13;6.63;;;16.40;52.30;;;;;;20681;6849;117387;-77
2022/09/24 07:17:12;;;;;;;7.33;6.73;;;16.30;52.30;;;;;;20710;6849;118027;-77
2022/09/24 07:19:38;;;;;;;7.77;7.27;;;16.20;53.40;;;;;;20492;6849;279431;-77
2022/09/24 07:22:04;;;;;;;7.00;6.50;;;16.20;54.10;;;;;;20705;6849;117549;-77
2022/09/24 07:24:29;;;;;;;6.97;6.57;;;16.10;53.10;;;;;;20678;6849;118442;-77
2022/09/24 07:26:56;;;;;;;8.47;7.87;;;16.00;53.30;;;;;;20485;6849;308186;-74
2022/09/24 07:29:22;;;;;;;7.33;6.93;;;16.20;53.70;;;;;;20500;6849;278789;-75
2022/09/24 07:31:47;;;;;;;8.07;7.47;;;16.40;53.20;;;;;;20494;6849;284390;-75
2022/09/24 07:34:13;;;;;;;8.02;7.53;;;16.70;52.60;;;;;;20493;6849;283782;-74
2022/09/24 07:36:39;;;;;;;6.97;6.67;;;17.00;52.20;;;;;;20681;6849;120078;-75
2022/09/24 07:39:05;;;;;;;7.90;7.20;;;16.80;52.20;;;;;;20689;6849;117539;-75
2022/09/24 07:41:32;;;;;;;7.90;7.37;;;16.60;52.60;;;;;;20503;6849;325909;-75
2022/09/24 07:43:57;;;;;;;8.35;7.65;;;16.60;52.90;;;;;;20474;6849;341312;-74
2022/09/24 07:46:23;;;;;;;7.90;7.17;;;16.90;52.50;;;;;;20695;6847;118208;-74
2022/09/24 07:48:48;;;;;;;8.32;7.75;;;16.80;52.50;;;;;;20688;6848;123519;-75
2022/09/24 07:51:13;;;;;;;8.30;7.67;;;16.50;52.70;;;;;;20703;6848;117136;-75
2022/09/24 07:53:39;;;;;;;7.87;7.30;;;16.30;53.10;;;;;;20711;6848;117242;-75
2022/09/24 07:56:04;;;;;;;7.65;7.05;;;16.20;53.50;;;;;;20704;6848;118113;-77
2022/09/24 07:58:30;;;;;;;8.63;8.03;;;16.00;53.80;;;;;;20467;6848;309978;-75
2022/09/24 08:00:56;;;;;;;7.77;7.17;;;16.30;55.00;;;;;;20703;6848;117502;-76
2022/09/24 08:03:22;;;;;;;7.77;7.37;;;16.50;54.90;;;;;;20491;6848;278951;-75
2022/09/24 08:05:48;;;;;;;8.30;7.70;;;16.50;54.90;;;;;;20510;6848;299196;-74
2022/09/24 08:08:13;;;;;;;7.60;7.20;;;16.90;54.40;;;;;;20715;6848;117497;-77
2022/09/24 08:10:41;;;;;;;8.63;8.10;;;16.80;54.00;;;;;;20484;6848;291545;-79
2022/09/24 08:13:06;;;;;;;8.03;7.53;;;16.90;54.10;;;;;;20700;6848;117463;-77
2022/09/24 08:15:31;;;;;;;7.33;6.83;;;16.80;53.90;;;;;;20697;6848;118303;-77
2022/09/24 08:18:00;;;;;;;7.60;7.15;;;16.60;54.20;;;;;;20707;6848;117374;-78
2022/09/24 08:20:25;;;;;;;8.30;7.73;;;16.40;54.60;;;;;;20445;6848;309602;-79
2022/09/24 08:22:53;;;;;;;7.85;7.10;;;16.60;55.30;;;;;;20710;6848;117436;-81
2022/09/24 08:25:18;;;;;;;8.27;7.67;;;16.60;55.00;;;;;;20486;6849;308991;-77
2022/09/24 08:27:43;;;;;;;9.05;8.35;;;16.80;55.50;;;;;;20492;6849;283263;-77
2022/09/24 08:30:09;;;;;;;8.17;7.57;;;17.10;55.50;;;;;;20704;6849;118431;-80
2022/09/24 08:32:35;;;;;;;8.47;7.77;;;17.20;55.30;;;;;;20665;6849;117857;-79
2022/09/24 08:35:02;;;;;;;8.17;7.37;;;17.00;55.40;;;;;;20703;6849;117436;-77
2022/09/24 08:37:27;;;;;;;7.27;6.77;;;16.90;55.80;;;;;;20700;6849;117330;-79
2022/09/24 08:39:53;;;;;;;7.47;7.03;;;16.80;55.90;;;;;;20689;6848;114022;-74
2022/09/24 08:42:35;;;;;;;8.35;7.75;;;16.80;56.20;;;;;;20488;6849;337133;-77
2022/09/24 08:47:49;;;;;;;8.43;7.93;;;17.10;56.30;;;;;;20495;6849;278454;-76
2022/09/24 08:50:19;;;;;;;8.47;7.87;;;17.40;56.60;;;;;;20481;6849;296457;-76
2022/09/24 08:52:50;;;;;;;8.20;7.70;;;17.80;56.30;;;;;;20673;6849;117661;-76
2022/09/24 08:55:20;;;;;;;7.70;7.20;;;17.70;55.80;;;;;;20696;6849;117777;-74
2022/09/24 08:58:21;;;;;;;8.00;7.50;;;17.50;56.00;;;;;;20488;6847;309267;-75
2022/09/24 09:00:52;;;;;;;8.43;7.87;;;17.70;55.80;;;;;;20469;6848;287356;-76
2022/09/24 09:03:31;;;;;;;8.53;7.97;;;18.00;55.70;;;;;;20484;6848;315665;-75
2022/09/24 09:06:03;;;;;;;6.93;6.53;;;18.20;55.40;;;;;;20699;6848;119562;-77
2022/09/24 09:08:42;;;;;;;8.25;7.75;;;18.10;55.70;;;;;;20443;6848;331780;-76
2022/09/24 09:11:09;;;;;;;7.37;6.83;;;18.10;55.70;;;;;;20670;6848;119447;-76
2022/09/24 09:13:35;;;;;;;7.85;7.40;;;18.00;55.50;;;;;;20475;6848;341961;-76
2022/09/24 09:16:02;;;;;;;7.45;6.97;;;18.10;55.80;;;;;;20479;6848;337130;-77
2022/09/24 09:18:26;;;;;;;8.00;7.50;;;18.30;55.50;;;;;;20461;6848;312548;-77
2022/09/24 09:20:51;;;;;;;7.50;6.83;;;18.50;55.80;;;;;;20613;6848;118384;-76
2022/09/24 09:23:30;;;;;;;6.57;6.17;;;18.40;56.30;;;;;;20692;6848;117203;-77
2022/09/24 09:25:56;;;;;;;7.87;7.23;;;18.10;55.90;;;;;;20479;6848;284024;-78
2022/09/24 09:28:21;;;;;;;7.70;7.15;;;18.20;56.40;;;;;;20459;6848;308250;-77
2022/09/24 09:31:02;;;;;;;7.03;6.50;;;18.40;55.70;;;;;;20664;6848;117960;-77
2022/09/24 09:34:00;;;;;;;8.17;7.03;;;18.20;55.50;;;;;;20708;6848;117323;-75
2022/09/24 09:36:37;;;;;;;8.88;8.20;;;17.90;56.00;;;;;;20479;6849;298140;-76
2022/09/24 09:39:23;;;;;;;7.70;7.00;;;17.90;57.60;;;;;;20697;6849;116969;-76
2022/09/24 09:41:49;;;;;;;8.57;7.87;;;17.90;58.00;;;;;;20469;6849;278087;-77
2022/09/24 09:44:25;;;;;;;7.90;7.40;;;17.90;58.00;;;;;;20082;6849;308619;-76
2022/09/24 09:46:50;;;;;;;8.27;7.80;;;18.00;57.80;;;;;;20504;6849;308900;-77
2022/09/24 09:49:16;;;;;;;7.53;6.93;;;18.20;57.80;;;;;;20691;6849;118315;-76
2022/09/24 09:51:42;;;;;;;7.77;7.27;;;18.10;58.50;;;;;;20478;6849;299990;-76
2022/09/24 09:54:08;;;;;;;8.13;7.63;;;18.10;58.40;;;;;;20698;6849;121335;-78
2022/09/24 09:56:34;;;;;;;7.07;6.43;;;17.70;58.70;;;;;;20697;6849;117387;-77
2022/09/24 09:58:59;;;;;;;7.78;7.28;;;17.70;58.80;;;;;;20413;6849;290672;-77
2022/09/24 10:01:26;;;;;;;8.10;7.60;;;17.80;59.80;;;;;;20287;6849;309470;-77
2022/09/24 10:03:54;;;;;;;7.18;6.78;;;18.10;59.30;;;;;;20674;6849;116667;-78
2022/09/24 10:06:24;;;;;;;6.97;6.40;;;18.00;59.00;;;;;;20693;6849;117773;-77
2022/09/24 10:08:49;;;;;;;8.53;7.93;;;17.90;59.40;;;;;;20647;6847;119990;-77
2022/09/24 10:11:15;;;;;;;6.77;6.37;;;17.70;59.70;;;;;;20705;6848;117423;-76
2022/09/24 10:13:40;;;;;;;7.57;6.97;;;17.60;60.00;;;;;;20492;6848;283240;-79
2022/09/24 10:16:06;;;;;;;7.03;6.47;;;17.70;60.50;;;;;;20709;6848;117772;-76
2022/09/24 10:18:33;;;;;;;8.10;7.60;;;18.00;59.40;;;;;;20462;6848;338056;-76
2022/09/24 10:20:58;;;;;;;7.68;7.18;;;17.90;59.30;;;;;;20486;6848;279918;-76
2022/09/24 10:23:31;;;;;;;8.10;7.60;;;18.30;59.20;;;;;;20489;6848;279470;-77
2022/09/24 10:25:59;;;;;;;7.80;7.30;;;18.60;59.40;;;;;;20638;6848;117738;-82
2022/09/24 10:31:12;;;;;;;7.87;7.30;;;18.30;59.50;;;;;;20560;6848;118051;-77
2022/09/24 10:33:41;;;;;;;7.17;6.67;;;18.00;60.00;;;;;;20640;6848;117394;-79
2022/09/24 10:36:06;;;;;;;8.00;7.30;;;17.90;60.30;;;;;;20492;6848;282520;-81
2022/09/24 10:38:32;;;;;;;8.23;7.63;;;18.20;59.70;;;;;;20449;6848;308229;-76
2022/09/24 10:40:58;;;;;;;7.50;7.10;;;18.50;58.80;;;;;;20703;6848;118564;-75
2022/09/24 10:43:23;;;;;;;7.13;6.73;;;18.50;58.60;;;;;;20707;6848;117262;-77
2022/09/24 10:46:08;;;;;;;6.63;6.23;;;18.40;59.10;;;;;;20709;6848;120504;-76
2022/09/24 10:48:34;;;;;;;6.93;6.33;;;18.20;59.50;;;;;;20675;6849;121574;-77
2022/09/24 10:51:02;;;;;;;6.93;6.43;;;18.10;59.80;;;;;;20670;6849;117517;-77
2022/09/24 10:53:33;;;;;;;7.90;7.45;;;18.10;60.30;;;;;;20473;6849;337697;-77
2022/09/24 10:56:02;;;;;;;6.57;6.07;;;18.30;61.80;;;;;;20465;6849;308481;-76
2022/09/24 10:58:50;;;;;;;7.20;6.70;;;18.80;60.20;;;;;;20476;6849;279040;-77
2022/09/24 11:01:20;;;;;;;6.30;5.90;;;19.20;58.60;;;;;;20704;6849;117266;-75
2022/09/24 11:04:10;;;;;;;6.10;5.70;;;19.30;58.60;;;;;;20703;6849;118256;-80
2022/09/24 11:06:42;;;;;;;6.50;6.10;;;19.20;59.10;;;;;;20475;6849;308641;-76
2022/09/24 11:09:16;;;;;;;6.67;5.83;;;19.40;59.00;;;;;;20682;6849;117761;-77
2022/09/24 11:11:55;;;;;;;5.50;5.10;;;19.50;58.80;;;;;;20672;6849;117517;-79
2022/09/24 11:14:37;;;;;;;6.20;5.80;;;19.40;58.70;;;;;;20506;6849;280902;-77
2022/09/24 11:17:16;;;;;;;5.82;5.35;;;19.60;58.40;;;;;;20490;6849;308908;-76
2022/09/24 11:19:47;;;;;;;5.53;5.13;;;19.90;57.70;;;;;;20505;6849;298053;-81
2022/09/24 11:22:13;;;;;;;5.17;4.77;;;20.20;56.80;;;;;;20697;6848;117410;-77
2022/09/24 11:24:56;;;;;;;5.60;5.20;;;20.10;57.60;;;;;;20465;6848;338228;-75
2022/09/24 11:27:41;;;;;;;5.05;4.85;;;20.10;57.80;;;;;;20493;6848;338083;-76
2022/09/24 11:30:16;;;;;;;4.53;4.30;;;20.40;57.20;;;;;;20694;6848;117217;-78
2022/09/24 11:33:09;;;;;;;4.47;4.17;;;20.30;56.90;;;;;;20677;6848;118540;-78
2022/09/24 11:36:08;;;;;;;5.10;4.80;;;20.10;57.00;;;;;;20505;6848;278579;-76
2022/09/24 11:38:47;;;;;;;4.70;4.47;;;20.60;55.70;;;;;;19844;6848;331786;-76
2022/09/24 11:41:43;;;;;;;4.30;4.10;;;20.60;55.80;;;;;;20066;6848;117807;-74
2022/09/24 11:44:35;;;;;;;4.47;4.27;;;20.30;56.20;;;;;;20712;6848;117224;-74
2022/09/24 11:47:14;;;;;;;4.63;4.37;;;20.20;56.10;;;;;;20707;6848;122074;-77
2022/09/24 11:49:42;;;;;;;4.97;4.67;;;20.10;56.50;;;;;;19434;7207;322716;-73
2022/09/24 11:52:08;;;;;;;4.87;4.53;;;20.30;55.70;;;;;;20335;6863;310903;-76
2022/09/24 11:54:33;;;;;;;4.80;4.50;;;20.60;54.80;;;;;;20448;6853;306807;-74
2022/09/24 11:56:59;;;;;;;4.70;4.40;;;21.20;53.40;;;;;;20462;6853;309086;-74
2022/09/24 12:00:06;;;;;;;4.68;4.40;;;21.10;53.30;;;;;;20470;6853;319080;-80
2022/09/24 12:02:37;;;;;;;4.63;4.33;;;21.40;53.00;;;;;;20661;6853;117753;-74
2022/09/24 12:05:06;;;;;;;4.10;3.77;;;21.10;53.40;;;;;;20654;6863;117449;-75
2022/09/24 12:07:31;;;;;;;4.60;4.20;;;20.80;54.70;;;;;;20675;6853;114232;-76
2022/09/24 12:10:03;;;;;;;4.53;4.30;;;20.60;54.40;;;;;;20477;6853;277409;-75
2022/09/24 12:12:29;;;;;;;4.83;4.57;;;20.70;54.10;;;;;;20643;6849;118924;-74
2022/09/24 12:15:00;;;;;;;4.77;4.47;;;20.70;54.10;;;;;;20698;6849;118926;-73
2022/09/24 12:17:33;;;;;;;4.73;4.43;;;20.60;54.20;;;;;;20705;6849;119360;-74
2022/09/24 12:20:00;;;;;;;4.53;4.23;;;20.20;55.20;;;;;;20693;6849;117285;-75
2022/09/24 12:22:26;;;;;;;4.67;4.47;;;20.40;55.20;;;;;;20464;6849;308581;-78
2022/09/24 12:24:52;;;;;;;5.10;4.80;;;20.40;54.50;;;;;;20479;6849;278418;-78
2022/09/24 12:27:27;;;;;;;4.95;4.62;;;20.80;54.30;;;;;;20502;6849;278080;-76
2022/09/24 12:33:31;;;;;;;4.73;4.43;;;20.90;52.60;;;;;;20505;6846;309328;-78
2022/09/24 12:36:27;;;;;;;4.80;4.50;;;21.10;54.30;;;;;;20484;6848;307542;-73
2022/09/24 12:38:52;;;;;;;5.37;4.70;;;21.10;53.50;;;;;;20504;6848;310806;-72
2022/09/24 12:41:18;;;;;;;4.17;3.87;;;21.20;53.60;;;;;;20706;6848;117269;-72
2022/09/24 12:43:44;;;;;;;4.80;4.40;;;20.70;53.90;;;;;;20092;6848;306573;-72
2022/09/24 12:46:23;;;;;;;4.37;4.17;;;20.70;53.90;;;;;;20687;6848;120707;-72
2022/09/24 12:48:54;;;;;;;4.20;3.90;;;20.50;54.00;;;;;;20692;6848;116982;-73
2022/09/24 12:51:22;;;;;;;5.17;4.50;;;20.10;54.40;;;;;;20706;6848;121549;-73
2022/09/24 12:53:57;;;;;;;4.67;4.37;;;19.80;55.00;;;;;;20490;6848;310496;-73
2022/09/24 12:56:24;;;;;;;4.75;4.37;;;19.90;55.60;;;;;;20468;6848;340894;-72
2022/09/24 12:58:51;;;;;;;4.17;3.87;;;20.10;55.40;;;;;;20671;6848;117409;-72
2022/09/24 13:01:19;;;;;;;4.93;4.63;;;20.00;56.00;;;;;;20505;6848;279373;-74